Time;durP1;ratioP1;P1;durP2;ratioP2;P2;SDS_P1;SDS_P2;PMS_P1;PMS_P2;Temp;Humidity;BMP_temperature;BMP_pressure;BME280_temperature;BME280_humidity;BME280_pressure;Samples;Min_cycle;Max_cycle;Signal;HPM_P1;HPM_P2
2021/08/07 00:00:58;;;;;;;1999.90;999.90;;;;;;;18.81;78.91;100114.56;15630611;28;20076;-59
2021/08/07 00:08:33;;;;;;;1999.90;999.90;;;;;;;18.90;78.62;100112.94;15638303;28;20107;-59
2021/08/07 00:16:11;;;;;;;1999.90;999.90;;;;;;;18.83;78.08;100109.31;15641617;28;20049;-58
2021/08/07 00:23:44;;;;;;;1999.90;999.90;;;;;;;18.73;78.79;100106.06;15612109;28;20045;-60
2021/08/07 00:31:16;;;;;;;1999.90;999.90;;;;;;;18.65;78.67;100106.47;15673179;28;20047;-58
2021/08/07 00:38:50;;;;;;;1999.90;999.90;;;;;;;18.43;78.69;100120.53;15632313;28;20049;-58
2021/08/07 00:46:27;;;;;;;1999.90;999.90;;;;;;;18.54;78.92;100102.78;15629413;28;20319;-58
2021/08/07 00:54:03;;;;;;;1999.90;999.90;;;;;;;18.39;78.50;100116.91;15652775;28;20033;-59
2021/08/07 01:01:42;;;;;;;1999.90;999.90;;;;;;;18.32;78.73;100118.91;15624252;28;20521;-59
2021/08/07 01:09:27;;;;;;;1999.90;999.90;;;;;;;18.35;78.82;100113.28;15665690;28;20034;-59
2021/08/07 01:17:04;;;;;;;1999.90;999.90;;;;;;;18.30;78.57;100115.69;15652275;28;20459;-59
2021/08/07 01:24:46;;;;;;;1999.90;999.90;;;;;;;18.23;78.83;100115.66;15635545;28;20066;-60
2021/08/07 01:32:24;;;;;;;1999.90;999.90;;;;;;;18.12;78.52;100118.44;15667265;28;20120;-61
2021/08/07 01:39:58;;;;;;;1999.90;999.90;;;;;;;18.05;78.36;100122.06;15668010;28;20260;-59
2021/08/07 01:47:52;;;;;;;1999.90;999.90;;;;;;;17.84;79.01;100111.50;15631663;28;20449;-58
2021/08/07 01:55:35;;;;;;;1999.90;999.90;;;;;;;17.92;78.53;100115.16;15634405;28;20045;-59
2021/08/07 02:03:14;;;;;;;1999.90;999.90;;;;;;;17.87;78.62;100113.53;15647766;28;20052;-59
2021/08/07 02:10:50;;;;;;;1999.90;999.90;;;;;;;17.75;78.33;100104.63;15635083;28;20044;-60
2021/08/07 02:18:26;;;;;;;1999.90;999.90;;;;;;;17.71;78.79;100109.41;15663670;28;20089;-58
2021/08/07 02:26:04;;;;;;;1999.90;999.90;;;;;;;17.71;78.64;100095.31;15655553;28;20045;-59
2021/08/07 02:33:46;;;;;;;1999.90;999.90;;;;;;;17.82;78.09;100093.34;15680695;28;20044;-57
2021/08/07 02:41:24;;;;;;;1999.90;999.90;;;;;;;17.65;78.49;100102.53;15681633;28;20134;-57
2021/08/07 02:49:00;;;;;;;1999.90;999.90;;;;;;;17.59;78.38;100096.44;15651560;28;20037;-58
2021/08/07 02:56:32;;;;;;;1999.90;999.90;;;;;;;17.58;78.43;100103.28;15646598;28;20128;-58
2021/08/07 03:04:06;;;;;;;1999.90;999.90;;;;;;;17.42;78.76;100102.81;15648006;28;20145;-60
2021/08/07 03:11:39;;;;;;;1999.90;999.90;;;;;;;17.45;78.49;100104.84;15664649;28;20055;-60
2021/08/07 03:19:15;;;;;;;1999.90;999.90;;;;;;;17.29;79.30;100105.94;15667666;28;20453;-60
2021/08/07 03:26:49;;;;;;;1999.90;999.90;;;;;;;17.31;78.83;100109.19;15693663;22;20047;-60
2021/08/07 03:34:25;;;;;;;1999.90;999.90;;;;;;;17.29;78.94;100102.31;15691486;28;20037;-60
2021/08/07 03:41:58;;;;;;;1999.90;999.90;;;;;;;17.28;78.31;100093.03;15722242;28;20072;-60
2021/08/07 03:49:34;;;;;;;1999.90;999.90;;;;;;;17.25;78.52;100102.28;15702098;28;20086;-61
2021/08/07 03:57:06;;;;;;;1999.90;999.90;;;;;;;16.91;80.11;100107.28;15702721;28;20047;-61
2021/08/07 04:04:40;;;;;;;1999.90;999.90;;;;;;;16.97;80.41;100114.16;15701135;28;20051;-60
2021/08/07 04:12:13;;;;;;;1999.90;999.90;;;;;;;17.20;79.79;100116.78;15698214;28;20452;-60
2021/08/07 04:19:49;;;;;;;1999.90;999.90;;;;;;;17.42;79.27;100112.06;15703270;28;20493;-60
2021/08/07 04:27:30;;;;;;;1999.90;999.90;;;;;;;17.50;80.09;100115.72;15701400;28;20047;-61
2021/08/07 04:35:05;;;;;;;1999.90;999.90;;;;;;;17.72;79.71;100113.88;15706522;28;20041;-60
2021/08/07 04:42:53;;;;;;;1999.90;999.90;;;;;;;18.10;78.57;100113.19;15698191;28;20401;-60
2021/08/07 04:50:29;;;;;;;1999.90;999.90;;;;;;;18.21;79.07;100112.41;15717600;28;20041;-60
2021/08/07 04:58:05;;;;;;;1999.90;999.90;;;;;;;17.94;80.96;100118.41;15720175;28;20044;-60
2021/08/07 05:05:41;;;;;;;1999.90;999.90;;;;;;;17.93;82.05;100118.81;15689442;28;20037;-60
2021/08/07 05:13:20;;;;;;;1999.90;999.90;;;;;;;18.36;80.27;100125.38;15655597;28;20576;-60
2021/08/07 05:20:57;;;;;;;1999.90;999.90;;;;;;;18.79;79.25;100129.09;15696875;28;20051;-61
2021/08/07 05:28:31;;;;;;;1999.90;999.90;;;;;;;19.08;78.91;100135.56;15739413;28;20592;-62
2021/08/07 05:36:08;;;;;;;1999.90;999.90;;;;;;;19.28;78.86;100155.75;15749720;28;20128;-60
2021/08/07 05:43:41;;;;;;;1999.90;999.90;;;;;;;19.88;77.17;100152.78;15721124;28;20034;-60
2021/08/07 05:51:15;;;;;;;1999.90;999.90;;;;;;;19.81;77.19;100154.84;15709888;28;20124;-60
2021/08/07 05:58:47;;;;;;;1999.90;999.90;;;;;;;20.36;76.18;100172.00;15729156;28;20045;-60
2021/08/07 06:06:21;;;;;;;1999.90;999.90;;;;;;;20.80;74.49;100164.06;15686203;28;20513;-60
2021/08/07 06:13:54;;;;;;;1999.90;999.90;;;;;;;20.92;74.66;100172.06;15657036;28;20040;-59
2021/08/07 06:21:29;;;;;;;1999.90;999.90;;;;;;;21.49;73.51;100180.13;15705463;28;20647;-60
2021/08/07 06:29:04;;;;;;;1999.90;999.90;;;;;;;21.62;71.24;100181.22;15700648;28;20036;-59
2021/08/07 06:36:37;;;;;;;1999.90;999.90;;;;;;;21.89;70.84;100187.81;15696714;28;20052;-60
2021/08/07 06:44:10;;;;;;;1999.90;999.90;;;;;;;22.16;69.77;100190.75;15739770;28;20048;-60
2021/08/07 06:51:46;;;;;;;1999.90;999.90;;;;;;;22.66;68.12;100198.63;15745593;28;20043;-60
2021/08/07 06:59:20;;;;;;;1999.90;999.90;;;;;;;22.80;67.12;100197.59;15746493;28;20036;-59
2021/08/07 07:06:55;;;;;;;1999.90;999.90;;;;;;;23.22;66.28;100192.50;15729123;28;20110;-59
2021/08/07 07:14:27;;;;;;;1999.90;999.90;;;;;;;23.06;66.42;100207.41;15744647;28;20059;-59
2021/08/07 07:22:01;;;;;;;1999.90;999.90;;;;;;;23.32;63.72;100211.44;15745307;28;20044;-61
2021/08/07 07:29:35;;;;;;;1999.90;999.90;;;;;;;23.71;62.95;100199.41;15700331;28;20048;-61
2021/08/07 07:37:08;;;;;;;1999.90;999.90;;;;;;;24.37;62.33;100209.09;15678915;28;20041;-63
2021/08/07 07:44:44;;;;;;;1999.90;999.90;;;;;;;24.42;60.74;100206.53;15678940;28;20407;-61
2021/08/07 07:52:19;;;;;;;1999.90;999.90;;;;;;;25.01;59.19;100199.94;15660846;28;20115;-61
2021/08/07 07:59:51;;;;;;;1999.90;999.90;;;;;;;24.84;58.04;100197.47;15678296;28;20087;-61
2021/08/07 08:07:25;;;;;;;1999.90;999.90;;;;;;;25.68;56.81;100201.50;15679080;28;20048;-62
2021/08/07 08:14:57;;;;;;;1999.90;999.90;;;;;;;25.98;57.58;100201.09;15679396;28;20045;-62
2021/08/07 08:22:31;;;;;;;1999.90;999.90;;;;;;;26.25;58.69;100209.31;15677077;28;20128;-61
2021/08/07 08:30:06;;;;;;;1999.90;999.90;;;;;;;26.55;53.88;100207.22;15659359;28;20052;-61
2021/08/07 08:37:40;;;;;;;1999.90;999.90;;;;;;;26.85;50.18;100205.91;15675378;28;20053;-59
2021/08/07 08:45:14;;;;;;;1999.90;999.90;;;;;;;26.42;49.58;100202.28;15675027;28;20051;-61
2021/08/07 08:52:49;;;;;;;1999.90;999.90;;;;;;;27.02;49.74;100202.50;15674677;28;20044;-61
2021/08/07 09:00:23;;;;;;;1999.90;999.90;;;;;;;26.42;49.89;100196.56;15674435;28;20566;-60
2021/08/07 09:08:00;;;;;;;1999.90;999.90;;;;;;;27.09;50.20;100194.91;15674697;28;20111;-60
2021/08/07 09:15:37;;;;;;;1999.90;999.90;;;;;;;27.35;48.23;100196.50;15675077;28;20053;-61
2021/08/07 09:23:34;;;;;;;1999.90;999.90;;;;;;;27.02;47.56;100210.28;15676404;28;20041;-60
2021/08/07 09:31:08;;;;;;;1999.90;999.90;;;;;;;27.06;47.93;100199.50;15658808;28;20037;-60
2021/08/07 09:38:47;;;;;;;1999.90;999.90;;;;;;;27.89;46.54;100190.53;15643134;28;20041;-61
2021/08/07 09:46:23;;;;;;;1999.90;999.90;;;;;;;28.89;46.09;100180.22;15677269;28;20049;-59
2021/08/07 09:54:07;;;;;;;1999.90;999.90;;;;;;;29.65;43.77;100164.31;15680178;28;20044;-61
2021/08/07 10:01:43;;;;;;;1999.90;999.90;;;;;;;28.14;44.56;100171.63;15721857;28;20051;-60
2021/08/07 10:09:31;;;;;;;1999.90;999.90;;;;;;;28.23;43.99;100168.78;15704662;28;20037;-62
2021/08/07 10:17:09;;;;;;;1999.90;999.90;;;;;;;28.38;46.10;100154.75;15692086;28;20045;-61
2021/08/07 10:24:46;;;;;;;1999.90;999.90;;;;;;;28.77;41.58;100152.41;15683574;28;20041;-62
2021/08/07 10:32:21;;;;;;;1999.90;999.90;;;;;;;29.03;42.39;100159.53;15651956;28;20051;-60
2021/08/07 10:39:56;;;;;;;1999.90;999.90;;;;;;;29.26;44.62;100150.31;15667592;28;20300;-61
2021/08/07 10:47:36;;;;;;;1999.90;999.90;;;;;;;29.43;42.04;100139.34;15667378;28;20057;-59
2021/08/07 10:55:47;;;;;;;1999.90;999.90;;;;;;;29.20;42.41;100125.59;15653036;28;20136;-61
2021/08/07 11:03:19;;;;;;;1999.90;999.90;;;;;;;29.26;41.31;100132.28;15664134;28;20098;-62
2021/08/07 11:10:53;;;;;;;1999.90;999.90;;;;;;;29.39;39.72;100123.53;15668177;28;20041;-62
2021/08/07 11:18:26;;;;;;;1999.90;999.90;;;;;;;29.13;40.95;100131.63;15657683;28;20068;-61
2021/08/07 11:26:05;;;;;;;1999.90;999.90;;;;;;;30.01;40.29;100140.47;15627532;28;20440;-61
2021/08/07 11:33:37;;;;;;;1999.90;999.90;;;;;;;30.52;37.12;100131.13;15664907;28;20041;-61
2021/08/07 11:41:30;;;;;;;1999.90;999.90;;;;;;;30.46;37.24;100123.16;15664165;28;20044;-61
2021/08/07 11:49:04;;;;;;;1999.90;999.90;;;;;;;30.93;36.33;100129.53;15681057;28;20049;-61
2021/08/07 11:56:38;;;;;;;1999.90;999.90;;;;;;;29.77;36.93;100115.25;15650301;28;20050;-61
2021/08/07 12:04:13;;;;;;;1999.90;999.90;;;;;;;29.42;40.04;100106.13;15619099;28;20041;-62
2021/08/07 12:11:47;;;;;;;1999.90;999.90;;;;;;;29.07;40.25;100101.94;15615415;28;20091;-61
2021/08/07 12:19:21;;;;;;;1999.90;999.90;;;;;;;28.09;39.10;100098.44;15678785;28;20518;-61
2021/08/07 12:26:57;;;;;;;1999.90;999.90;;;;;;;27.63;40.42;100096.50;15648862;28;20069;-62
2021/08/07 12:34:31;;;;;;;1999.90;999.90;;;;;;;27.28;41.57;100103.03;15678628;28;20036;-62
2021/08/07 12:42:05;;;;;;;1999.90;999.90;;;;;;;29.42;38.34;100096.72;15678851;28;20489;-62
2021/08/07 12:49:40;;;;;;;1999.90;999.90;;;;;;;29.98;37.53;100093.34;15672253;28;20555;-61
2021/08/07 12:57:24;;;;;;;1999.90;999.90;;;;;;;30.97;33.12;100079.13;15684849;28;20037;-62
2021/08/07 13:04:59;;;;;;;1999.90;999.90;;;;;;;29.57;37.77;100078.38;15679080;28;20090;-62
2021/08/07 13:12:42;;;;;;;1999.90;999.90;;;;;;;30.39;35.49;100071.69;15678671;28;20053;-63
2021/08/07 13:20:34;;;;;;;1999.90;999.90;;;;;;;29.29;37.75;100063.19;15676613;28;20136;-62
2021/08/07 13:28:10;;;;;;;1999.90;999.90;;;;;;;29.31;35.16;100077.88;15671961;28;20045;-63
2021/08/07 13:35:43;;;;;;;1999.90;999.90;;;;;;;28.77;37.50;100072.00;15672750;28;20072;-62
2021/08/07 13:43:16;;;;;;;1999.90;999.90;;;;;;;28.48;38.25;100053.09;15674812;28;20045;-61
2021/08/07 13:50:49;;;;;;;1999.90;999.90;;;;;;;28.42;38.36;100044.28;15668502;28;20045;-63
2021/08/07 13:58:23;;;;;;;1999.90;999.90;;;;;;;28.05;39.96;100049.03;15685289;28;20136;-63
2021/08/07 14:05:56;;;;;;;1999.90;999.90;;;;;;;28.00;39.26;100043.09;15682196;28;20053;-63
2021/08/07 14:13:29;;;;;;;1999.90;999.90;;;;;;;28.56;40.01;100036.41;15683859;28;20115;-62
2021/08/07 14:21:02;;;;;;;1999.90;999.90;;;;;;;28.13;40.27;100041.72;15686821;28;20591;-61
2021/08/07 14:28:35;;;;;;;1999.90;999.90;;;;;;;28.00;41.02;100031.63;15686337;28;20051;-61
2021/08/07 14:36:07;;;;;;;1999.90;999.90;;;;;;;28.02;41.19;100027.03;15685605;28;20041;-62
2021/08/07 14:43:42;;;;;;;1999.90;999.90;;;;;;;28.30;41.67;100024.31;15668313;28;20114;-63
2021/08/07 14:51:14;;;;;;;1999.90;999.90;;;;;;;27.88;40.95;100014.06;15668213;28;20056;-63
2021/08/07 14:58:48;;;;;;;1999.90;999.90;;;;;;;27.66;41.92;100010.41;15686278;28;20128;-62
2021/08/07 15:06:20;;;;;;;1999.90;999.90;;;;;;;27.16;41.54;99991.38;15685958;28;20033;-63
2021/08/07 15:13:54;;;;;;;1999.90;999.90;;;;;;;27.42;41.03;100000.69;15668393;28;20123;-63
2021/08/07 15:21:28;;;;;;;1999.90;999.90;;;;;;;26.97;40.62;99987.53;15692272;22;20067;-82
2021/08/07 15:29:03;;;;;;;1999.90;999.90;;;;;;;27.44;39.94;99995.28;15702616;28;20435;-83
2021/08/07 15:36:36;;;;;;;1999.90;999.90;;;;;;;27.49;40.68;99983.19;15712952;28;20044;-82
2021/08/07 15:44:12;;;;;;;1999.90;999.90;;;;;;;27.19;41.16;99976.94;15678098;28;20037;-84
2021/08/07 15:51:45;;;;;;;1999.90;999.90;;;;;;;27.35;41.93;99984.56;15703608;28;20045;-83
2021/08/07 15:59:20;;;;;;;1999.90;999.90;;;;;;;27.52;43.29;99983.09;15712842;28;20049;-83
2021/08/07 16:06:55;;;;;;;1999.90;999.90;;;;;;;27.35;42.91;99967.38;15690190;28;20044;-84
2021/08/07 16:14:31;;;;;;;1999.90;999.90;;;;;;;27.36;42.99;99963.22;15692666;28;20045;-82
2021/08/07 16:22:04;;;;;;;1999.90;999.90;;;;;;;27.33;43.69;99939.19;15672142;28;20643;-82
2021/08/07 16:29:40;;;;;;;1999.90;999.90;;;;;;;26.87;42.79;99938.00;15648392;28;20107;-80
2021/08/07 16:37:13;;;;;;;1999.90;999.90;;;;;;;26.61;44.53;99942.22;15607198;28;20132;-83
2021/08/07 16:44:47;;;;;;;1999.90;999.90;;;;;;;26.67;44.46;99944.00;15659679;28;20037;-84
2021/08/07 16:52:20;;;;;;;1999.90;999.90;;;;;;;26.51;43.87;99941.31;15658599;28;20036;-81
2021/08/07 16:59:56;;;;;;;1999.90;999.90;;;;;;;26.82;43.93;99938.59;15689154;28;20048;-82
2021/08/07 17:07:28;;;;;;;1999.90;999.90;;;;;;;26.53;44.51;99917.97;15694877;28;20033;-79
2021/08/07 17:15:06;;;;;;;1999.90;999.90;;;;;;;26.51;45.09;99934.81;15669199;28;20094;-81
2021/08/07 17:22:38;;;;;;;1999.90;999.90;;;;;;;26.12;45.25;99937.69;15683002;28;20083;-80
2021/08/07 17:30:12;;;;;;;1999.90;999.90;;;;;;;26.24;44.60;99910.34;15693965;28;20045;-81
2021/08/07 17:37:47;;;;;;;1999.90;999.90;;;;;;;25.82;44.59;99941.91;15691304;28;20045;-81
2021/08/07 17:45:21;;;;;;;1999.90;999.90;;;;;;;25.77;45.05;99916.78;15693851;28;20037;-80
2021/08/07 17:52:54;;;;;;;1999.90;999.90;;;;;;;25.85;45.30;99926.72;15701729;28;20049;-81
2021/08/07 18:00:27;;;;;;;;;;;;;;;25.84;46.45;99913.66;15708753;28;20045;-82
2021/08/07 18:08:00;;;;;;;1999.90;999.90;;;;;;;25.65;47.75;99899.59;15677356;28;20023;-81
2021/08/07 18:15:33;;;;;;;1999.90;999.90;;;;;;;25.12;47.83;99922.81;15678659;28;20049;-80
2021/08/07 18:23:06;;;;;;;1999.90;999.90;;;;;;;25.43;47.36;99917.41;15663885;28;20081;-81
2021/08/07 18:30:39;;;;;;;1999.90;999.90;;;;;;;25.38;46.89;99911.44;15693084;28;20051;-79
2021/08/07 18:38:12;;;;;;;1999.90;999.90;;;;;;;25.43;47.32;99905.16;15681763;28;20136;-81
2021/08/07 18:45:45;;;;;;;;;;;;;;;25.06;48.26;99913.19;15664232;28;20072;-80
2021/08/07 18:53:18;;;;;;;1999.90;999.90;;;;;;;24.77;52.01;99931.06;15687236;28;19935;-79
2021/08/07 19:00:55;;;;;;;1999.90;999.90;;;;;;;24.19;56.43;99905.28;15665802;28;20043;-82
2021/08/07 19:08:30;;;;;;;1999.90;999.90;;;;;;;23.65;63.24;99892.75;15713811;28;20045;-81
2021/08/07 19:16:08;;;;;;;1999.90;999.90;;;;;;;23.36;65.12;99906.81;15648989;28;20061;-80
2021/08/07 19:23:40;;;;;;;1999.90;999.90;;;;;;;22.37;67.53;99959.47;15700501;28;20053;-80
2021/08/07 19:31:19;;;;;;;1999.90;999.90;;;;;;;21.86;70.73;99995.53;15708001;28;20041;-79
2021/08/07 19:38:51;;;;;;;1999.90;999.90;;;;;;;21.39;74.28;99969.03;15709139;28;20428;-80
2021/08/07 19:46:25;;;;;;;1999.90;999.90;;;;;;;21.09;76.68;99981.09;15685719;28;20049;-82
2021/08/07 19:53:58;;;;;;;1999.90;999.90;;;;;;;21.31;76.83;99993.03;15700373;28;20041;-82
2021/08/07 20:01:32;;;;;;;;;;;;;;;21.27;77.46;99990.25;15706446;28;20551;-81
2021/08/07 20:09:05;;;;;;;1999.90;999.90;;;;;;;20.86;79.84;100014.97;15684466;28;20332;-82
2021/08/07 20:16:42;;;;;;;1999.90;999.90;;;;;;;20.64;78.67;100026.50;15697871;28;20525;-81
2021/08/07 20:24:18;;;;;;;1999.90;999.90;;;;;;;20.78;78.80;100027.59;15706646;28;20076;-80
2021/08/07 20:31:57;;;;;;;1999.90;999.90;;;;;;;20.96;77.98;100042.44;15717112;22;21125;-59
2021/08/07 20:39:30;;;;;;;1999.90;999.90;;;;;;;20.80;78.60;100065.66;15530778;28;20137;-58
2021/08/07 20:47:04;;;;;;;1999.90;999.90;;;;;;;20.85;78.73;100042.53;15557147;28;20498;-59
2021/08/07 20:54:36;;;;;;;1999.90;999.90;;;;;;;21.00;77.37;100023.34;15560181;28;20046;-59
2021/08/07 21:02:18;;;;;;;1999.90;999.90;;;;;;;21.12;77.34;100036.16;15575143;28;20379;-59
2021/08/07 21:09:51;;;;;;;1999.90;999.90;;;;;;;21.16;77.86;100026.41;15564358;28;20470;-59
2021/08/07 21:17:25;;;;;;;1999.90;999.90;;;;;;;21.28;77.95;100036.44;15549522;28;20100;-60
2021/08/07 21:24:58;;;;;;;1999.90;999.90;;;;;;;21.11;77.59;100031.72;15551203;28;20332;-59
2021/08/07 21:32:31;;;;;;;1999.90;999.90;;;;;;;20.84;77.97;100032.41;15644812;23;20053;-63
2021/08/07 21:40:09;;;;;;;1999.90;999.90;;;;;;;20.76;78.97;100013.84;15690966;28;20045;-63
2021/08/07 21:47:44;;;;;;;1999.90;999.90;;;;;;;20.97;78.43;100027.81;15704722;28;20135;-66
2021/08/07 21:55:16;;;;;;;1999.90;999.90;;;;;;;20.80;79.22;100013.81;15738903;28;20072;-63
2021/08/07 22:02:49;;;;;;;1999.90;999.90;;;;;;;20.88;78.74;100043.72;15755143;28;20147;-62
2021/08/07 22:10:23;;;;;;;1999.90;999.90;;;;;;;20.61;80.47;100035.84;15749125;28;20512;-63
2021/08/07 22:18:04;;;;;;;1999.90;999.90;;;;;;;20.48;81.33;100034.75;15750993;28;20044;-62
2021/08/07 22:25:39;;;;;;;1999.90;999.90;;;;;;;20.78;80.26;100007.75;15743943;28;20143;-63
2021/08/07 22:33:13;;;;;;;1999.90;999.90;;;;;;;20.66;80.79;100000.59;15737294;28;20374;-62
2021/08/07 22:40:45;;;;;;;1999.90;999.90;;;;;;;20.65;79.83;99977.09;15747889;28;20473;-62
2021/08/07 22:48:18;;;;;;;1999.90;999.90;;;;;;;20.92;79.56;100011.25;15720877;28;20448;-60
2021/08/07 22:55:51;;;;;;;1999.90;999.90;;;;;;;20.51;79.71;99993.41;15751550;28;20040;-60
2021/08/07 23:03:24;;;;;;;1999.90;999.90;;;;;;;20.71;79.11;100014.28;15742283;28;20052;-61
2021/08/07 23:10:57;;;;;;;1999.90;999.90;;;;;;;20.51;78.57;99999.09;15740415;28;20043;-61
2021/08/07 23:18:30;;;;;;;1999.90;999.90;;;;;;;20.77;78.08;100012.63;15718350;28;20489;-60
2021/08/07 23:26:05;;;;;;;1999.90;999.90;;;;;;;20.49;78.05;100010.84;15748018;28;20123;-61
2021/08/07 23:33:39;;;;;;;1999.90;999.90;;;;;;;20.39;78.13;100003.19;15737612;28;20041;-60
2021/08/07 23:41:11;;;;;;;1999.90;999.90;;;;;;;20.31;78.25;100007.31;15721304;28;20047;-61
2021/08/07 23:48:47;;;;;;;1999.90;999.90;;;;;;;20.03;79.27;100002.66;15746040;28;20152;-60
2021/08/07 23:56:19;;;;;;;1999.90;999.90;;;;;;;19.81;79.93;100013.31;15731806;28;20040;-61
